createdAt,value
2018-01-25T00:00:10.611Z,1006.88
2018-01-25T00:01:10.557Z,1006.88
2018-01-25T00:02:11.304Z,1006.87
2018-01-25T00:03:10.868Z,1006.85
2018-01-25T00:04:11.056Z,1006.84
2018-01-25T00:05:11.063Z,1006.84
2018-01-25T00:06:09.998Z,1006.79
2018-01-25T00:07:10.527Z,1006.77
2018-01-25T00:08:11.941Z,1006.81
2018-01-25T00:09:10.506Z,1006.8
2018-01-25T00:10:09.951Z,1006.81
2018-01-25T00:11:10.621Z,1006.83
2018-01-25T00:12:09.837Z,1006.81
2018-01-25T00:13:10.520Z,1006.83
2018-01-25T00:14:09.901Z,1006.81
2018-01-25T00:15:10.240Z,1006.73
2018-01-25T00:16:11.301Z,1006.81
2018-01-25T00:17:11.868Z,1006.78
2018-01-25T00:18:09.932Z,1006.79
2018-01-25T00:19:13.212Z,1006.77
2018-01-25T00:20:10.363Z,1006.77
2018-01-25T00:21:10.744Z,1006.79
2018-01-25T00:22:11.186Z,1006.78
2018-01-25T00:23:11.013Z,1006.77
2018-01-25T00:24:10.234Z,1006.73
2018-01-25T00:25:12.003Z,1006.78
2018-01-25T00:26:09.879Z,1006.8
2018-01-25T00:27:10.984Z,1006.79
2018-01-25T00:28:10.875Z,1006.82
2018-01-25T00:29:11.275Z,1006.82
2018-01-25T00:30:10.021Z,1006.91
2018-01-25T00:31:11.141Z,1006.87
2018-01-25T00:32:10.131Z,1006.91
2018-01-25T00:33:09.931Z,1006.9
2018-01-25T00:34:10.676Z,1006.81
2018-01-25T00:35:09.992Z,1006.83
2018-01-25T00:36:11.124Z,1006.77
2018-01-25T00:37:11.876Z,1006.77
2018-01-25T00:38:10.920Z,1006.8
2018-01-25T00:39:09.960Z,1006.79
2018-01-25T00:40:11.550Z,1006.82
2018-01-25T00:41:11.561Z,1006.81
2018-01-25T00:42:10.037Z,1006.8
2018-01-25T00:43:10.018Z,1006.84
2018-01-25T00:44:11.362Z,1006.77
2018-01-25T00:45:09.926Z,1006.71
2018-01-25T00:46:09.960Z,1006.66
2018-01-25T00:47:10.039Z,1006.7
2018-01-25T00:48:10.537Z,1006.71
2018-01-25T00:49:10.558Z,1006.68
2018-01-25T00:52:10.982Z,1006.63
2018-01-25T00:53:10.686Z,1006.67
2018-01-25T00:54:10.155Z,1006.56
2018-01-25T00:55:10.570Z,1006.59
2018-01-25T00:58:27.053Z,1006.55
2018-01-25T00:59:10.138Z,1006.54
2018-01-25T01:00:10.173Z,1006.52
2018-01-25T01:01:10.774Z,1006.53
2018-01-25T01:02:10.902Z,1006.49
2018-01-25T01:03:10.236Z,1006.54
2018-01-25T01:04:10.120Z,1006.56
2018-01-25T01:05:13.327Z,1006.45
2018-01-25T01:06:10.082Z,1006.46
2018-01-25T01:07:10.875Z,1006.46
2018-01-25T01:08:10.248Z,1006.48
2018-01-25T01:09:10.830Z,1006.48
2018-01-25T01:10:10.940Z,1006.48
2018-01-25T01:11:10.283Z,1006.46
2018-01-25T01:12:10.863Z,1006.45
2018-01-25T01:13:11.008Z,1006.42
2018-01-25T01:14:10.069Z,1006.35
2018-01-25T01:15:09.999Z,1006.37
2018-01-25T01:16:10.155Z,1006.32
2018-01-25T01:17:09.948Z,1006.3
2018-01-25T01:18:09.989Z,1006.34
2018-01-25T01:19:10.018Z,1006.34
2018-01-25T01:20:10.057Z,1006.32
2018-01-25T01:21:09.995Z,1006.33
2018-01-25T01:22:10.133Z,1006.32
2018-01-25T01:23:10.046Z,1006.28
2018-01-25T01:24:10.042Z,1006.26
2018-01-25T01:25:10.052Z,1006.31
2018-01-25T01:26:10.200Z,1006.28
2018-01-25T01:27:10.218Z,1006.22
2018-01-25T01:28:09.996Z,1006.26
2018-01-25T01:29:10.150Z,1006.1
2018-01-25T01:30:10.073Z,1006.22
2018-01-25T01:31:10.029Z,1006.25
2018-01-25T01:32:10.036Z,1006.24
2018-01-25T01:33:10.110Z,1006.23
2018-01-25T01:34:10.126Z,1006.25
2018-01-25T01:35:10.149Z,1006.19
2018-01-25T01:36:10.064Z,1006.14
2018-01-25T01:37:10.074Z,1006.18
2018-01-25T01:38:10.085Z,1006.23
2018-01-25T01:39:10.098Z,1006.25
2018-01-25T01:40:10.058Z,1006.12
2018-01-25T01:41:10.000Z,1006.15
2018-01-25T01:42:10.196Z,1006.17
2018-01-25T01:43:10.041Z,1006.14
2018-01-25T01:44:10.118Z,1006.11
2018-01-25T01:45:10.100Z,1006.12
2018-01-25T01:46:10.061Z,1006.08
2018-01-25T01:47:10.142Z,1006.08
2018-01-25T01:48:10.119Z,1006.07
2018-01-25T01:49:10.051Z,1006.08
2018-01-25T01:50:10.154Z,1006.06
2018-01-25T01:51:10.027Z,1006.03
2018-01-25T01:52:10.112Z,1006.01
2018-01-25T01:53:10.072Z,1006.08
2018-01-25T01:54:10.036Z,1006.02
2018-01-25T01:55:10.097Z,1006.07
2018-01-25T01:56:10.048Z,1006.07
2018-01-25T01:57:10.111Z,1006.08
2018-01-25T01:58:10.041Z,1006.08
2018-01-25T01:59:10.099Z,1006.08
2018-01-25T02:00:09.126Z,1006.07
2018-01-25T02:01:09.325Z,1006.05
2018-01-25T02:02:09.126Z,1006.03
2018-01-25T02:03:09.104Z,1006.01
2018-01-25T02:04:09.152Z,1006.04
2018-01-25T02:05:09.208Z,1006.03
2018-01-25T02:06:09.126Z,1006.03
2018-01-25T02:07:09.105Z,1006.04
2018-01-25T02:08:09.097Z,1006.03
2018-01-25T02:09:09.189Z,1005.98
2018-01-25T02:10:09.142Z,1005.99
2018-01-25T02:11:09.090Z,1006.02
2018-01-25T02:12:09.109Z,1005.97
2018-01-25T02:13:09.127Z,1006
2018-01-25T02:14:09.089Z,1006
2018-01-25T02:15:09.106Z,1005.94
2018-01-25T02:16:09.116Z,1005.94
2018-01-25T02:17:09.202Z,1005.92
2018-01-25T02:18:09.106Z,1005.94
2018-01-25T02:19:09.216Z,1005.98
2018-01-25T02:20:09.095Z,1005.94
2018-01-25T02:21:09.154Z,1005.94
2018-01-25T02:22:09.211Z,1005.95
2018-01-25T02:23:09.174Z,1005.91
2018-01-25T02:24:09.103Z,1005.94
2018-01-25T02:25:09.181Z,1005.9
2018-01-25T02:26:09.159Z,1005.93
2018-01-25T02:27:09.240Z,1005.91
2018-01-25T02:28:09.312Z,1005.86
2018-01-25T02:29:09.200Z,1005.83
2018-01-25T02:30:09.349Z,1005.86
2018-01-25T02:31:09.315Z,1005.86
2018-01-25T02:32:09.179Z,1005.9
2018-01-25T02:33:09.191Z,1005.85
2018-01-25T02:34:09.168Z,1005.89
2018-01-25T02:35:09.237Z,1005.86
2018-01-25T02:36:09.093Z,1005.9
2018-01-25T02:37:09.138Z,1005.86
2018-01-25T02:39:22.140Z,1005.97
2018-01-25T02:40:09.175Z,1005.88
2018-01-25T02:41:09.152Z,1005.86
2018-01-25T02:42:09.201Z,1005.95
2018-01-25T02:43:09.188Z,1005.89
2018-01-25T02:44:09.221Z,1005.88
2018-01-25T02:45:09.149Z,1005.9
2018-01-25T02:46:09.233Z,1005.84
2018-01-25T02:47:09.187Z,1005.84
2018-01-25T02:48:09.170Z,1005.82
2018-01-25T02:49:09.189Z,1005.84
2018-01-25T02:50:09.147Z,1005.85
2018-01-25T02:51:09.249Z,1005.87
2018-01-25T02:52:09.182Z,1005.86
2018-01-25T02:53:09.203Z,1005.85
2018-01-25T02:54:09.165Z,1005.88
2018-01-25T02:55:09.171Z,1005.86
2018-01-25T02:56:09.197Z,1005.88
2018-01-25T02:57:09.195Z,1005.88
2018-01-25T02:58:09.147Z,1005.86
2018-01-25T02:59:09.141Z,1005.85
2018-01-25T03:00:09.216Z,1005.85
2018-01-25T03:01:09.170Z,1005.82
2018-01-25T03:02:09.242Z,1005.86
2018-01-25T03:03:09.531Z,1005.87
2018-01-25T03:04:09.209Z,1005.82
2018-01-25T03:05:09.215Z,1005.8
2018-01-25T03:06:09.256Z,1005.8
2018-01-25T03:07:09.272Z,1005.78
2018-01-25T03:08:09.222Z,1005.84
2018-01-25T03:09:09.177Z,1005.82
2018-01-25T03:10:09.156Z,1005.79
2018-01-25T03:11:09.233Z,1005.77
2018-01-25T03:12:09.308Z,1005.8
2018-01-25T03:13:09.255Z,1005.74
2018-01-25T03:14:09.176Z,1005.7
2018-01-25T03:15:09.249Z,1005.71
2018-01-25T03:16:09.238Z,1005.71
2018-01-25T03:17:09.216Z,1005.72
2018-01-25T03:18:09.190Z,1005.72
2018-01-25T03:19:09.288Z,1005.72
2018-01-25T03:20:09.254Z,1005.71
2018-01-25T03:21:09.239Z,1005.67
2018-01-25T03:22:09.233Z,1005.64
2018-01-25T03:23:09.263Z,1005.62
2018-01-25T03:24:09.265Z,1005.6
2018-01-25T03:25:09.218Z,1005.58
2018-01-25T03:26:09.262Z,1005.6
2018-01-25T03:27:09.258Z,1005.57
2018-01-25T03:28:09.237Z,1005.61
2018-01-25T03:29:09.239Z,1005.56
2018-01-25T03:30:09.353Z,1005.53
2018-01-25T03:31:09.256Z,1005.57
2018-01-25T03:32:09.312Z,1005.53
2018-01-25T03:33:09.368Z,1005.51
2018-01-25T03:34:09.326Z,1005.54
2018-01-25T03:35:09.358Z,1005.5
2018-01-25T03:36:09.314Z,1005.52
2018-01-25T03:37:10.167Z,1005.54
2018-01-25T03:38:09.255Z,1005.57
2018-01-25T03:39:09.226Z,1005.61
2018-01-25T03:40:09.336Z,1005.57
2018-01-25T03:41:09.301Z,1005.57
2018-01-25T03:43:11.868Z,1005.65
2018-01-25T03:44:09.245Z,1005.62
2018-01-25T03:45:09.323Z,1005.63
2018-01-25T03:46:09.327Z,1005.64
2018-01-25T03:47:09.336Z,1005.62
2018-01-25T03:48:09.236Z,1005.64
2018-01-25T03:50:09.299Z,1005.63
2018-01-25T03:53:25.302Z,1005.59
2018-01-25T03:54:09.337Z,1005.66
2018-01-25T03:55:09.393Z,1005.62
2018-01-25T03:56:09.271Z,1005.69
2018-01-25T03:57:09.307Z,1005.71
2018-01-25T03:58:09.300Z,1005.71
2018-01-25T03:59:09.355Z,1005.72
2018-01-25T04:00:09.410Z,1005.72
2018-01-25T04:01:09.489Z,1005.71
2018-01-25T04:02:09.292Z,1005.74
2018-01-25T04:03:09.336Z,1005.73
2018-01-25T04:04:09.493Z,1005.76
2018-01-25T04:05:09.344Z,1005.75
2018-01-25T04:06:09.350Z,1005.74
2018-01-25T04:07:09.399Z,1005.76
2018-01-25T04:08:09.345Z,1005.7
2018-01-25T04:09:09.314Z,1005.71
2018-01-25T04:10:09.341Z,1005.73
2018-01-25T04:11:09.328Z,1005.71
2018-01-25T04:12:09.394Z,1005.66
2018-01-25T04:13:09.290Z,1005.71
2018-01-25T04:14:09.306Z,1005.67
2018-01-25T04:15:09.369Z,1005.65
2018-01-25T04:16:09.428Z,1005.64
2018-01-25T04:17:09.424Z,1005.69
2018-01-25T04:18:09.400Z,1005.69
2018-01-25T04:19:09.330Z,1005.69
2018-01-25T04:20:09.335Z,1005.73
2018-01-25T04:21:09.380Z,1005.7
2018-01-25T04:22:09.557Z,1005.74
2018-01-25T04:23:09.309Z,1005.7
2018-01-25T04:24:09.350Z,1005.73
2018-01-25T04:25:09.348Z,1005.73
2018-01-25T04:26:09.377Z,1005.78
2018-01-25T04:27:09.335Z,1005.78
2018-01-25T04:28:09.391Z,1005.83
2018-01-25T04:29:09.338Z,1005.78
2018-01-25T04:30:10.432Z,1005.84
2018-01-25T04:31:10.463Z,1005.83
2018-01-25T04:32:10.457Z,1005.79
2018-01-25T04:33:09.419Z,1005.89
2018-01-25T04:34:09.359Z,1005.82
2018-01-25T04:35:09.379Z,1005.83
2018-01-25T04:36:09.334Z,1005.8
2018-01-25T04:37:09.441Z,1005.85
2018-01-25T04:38:09.521Z,1005.8
2018-01-25T04:39:09.420Z,1005.8
2018-01-25T04:40:09.302Z,1005.8
2018-01-25T04:41:09.368Z,1005.85
2018-01-25T04:42:09.375Z,1005.83
2018-01-25T04:43:09.403Z,1005.77
2018-01-25T04:44:09.338Z,1005.84
2018-01-25T04:45:09.447Z,1005.82
2018-01-25T04:46:09.441Z,1005.85
2018-01-25T04:47:09.443Z,1005.82
2018-01-25T04:48:09.428Z,1005.79
2018-01-25T04:49:09.434Z,1005.79
2018-01-25T04:50:09.390Z,1005.78
2018-01-25T04:51:09.384Z,1005.82
2018-01-25T04:52:09.394Z,1005.75
2018-01-25T04:53:09.437Z,1005.78
2018-01-25T04:54:09.417Z,1005.77
2018-01-25T04:55:09.364Z,1005.78
2018-01-25T04:56:09.583Z,1005.75
2018-01-25T04:57:09.351Z,1005.78
2018-01-25T04:58:09.357Z,1005.78
2018-01-25T04:59:09.377Z,1005.77
2018-01-25T05:00:09.423Z,1005.77
2018-01-25T05:01:09.429Z,1005.76
2018-01-25T05:02:09.374Z,1005.82
2018-01-25T05:03:09.444Z,1005.81
2018-01-25T05:04:09.408Z,1005.78
2018-01-25T05:05:09.520Z,1005.82
2018-01-25T05:06:09.466Z,1005.79
2018-01-25T05:07:09.396Z,1005.81
2018-01-25T05:08:09.480Z,1005.8
2018-01-25T05:09:09.505Z,1005.8
2018-01-25T05:10:09.437Z,1005.8
2018-01-25T05:11:09.519Z,1005.84
2018-01-25T05:12:09.474Z,1005.8
2018-01-25T05:13:10.139Z,1005.76
2018-01-25T05:14:09.393Z,1005.81
2018-01-25T05:15:09.479Z,1005.78
2018-01-25T05:16:09.418Z,1005.81
2018-01-25T05:17:09.492Z,1005.77
2018-01-25T05:18:09.368Z,1005.77
2018-01-25T05:19:09.413Z,1005.79
2018-01-25T05:20:09.431Z,1005.77
2018-01-25T05:21:09.590Z,1005.79
2018-01-25T05:22:09.465Z,1005.76
2018-01-25T05:23:09.452Z,1005.75
2018-01-25T05:24:09.370Z,1005.77
2018-01-25T05:25:09.456Z,1005.7
2018-01-25T05:26:09.376Z,1005.73
2018-01-25T05:27:09.439Z,1005.71
2018-01-25T05:28:09.454Z,1005.68
2018-01-25T05:29:09.439Z,1005.71
2018-01-25T05:30:09.439Z,1005.67
2018-01-25T05:31:09.456Z,1005.71
2018-01-25T05:32:09.498Z,1005.71
2018-01-25T05:33:09.574Z,1005.66
2018-01-25T05:34:09.549Z,1005.69
2018-01-25T05:35:09.486Z,1005.7
2018-01-25T05:36:09.554Z,1005.67
2018-01-25T05:37:09.594Z,1005.68
2018-01-25T05:38:09.556Z,1005.7
2018-01-25T05:39:09.612Z,1005.73
2018-01-25T05:40:09.504Z,1005.68
2018-01-25T05:41:09.442Z,1005.66
2018-01-25T05:42:09.499Z,1005.73
2018-01-25T05:43:09.408Z,1005.73
2018-01-25T05:44:09.471Z,1005.69
2018-01-25T05:45:09.454Z,1005.72
2018-01-25T05:46:09.497Z,1005.69
2018-01-25T05:47:09.438Z,1005.71
2018-01-25T05:48:09.434Z,1005.7
2018-01-25T05:49:09.498Z,1005.64
2018-01-25T05:50:09.469Z,1005.64
2018-01-25T05:51:09.426Z,1005.66
2018-01-25T05:52:09.450Z,1005.63
2018-01-25T05:53:09.403Z,1005.67
2018-01-25T05:54:09.510Z,1005.64
2018-01-25T05:55:09.401Z,1005.65
2018-01-25T05:56:09.418Z,1005.68
2018-01-25T05:57:09.435Z,1005.69
2018-01-25T05:58:09.423Z,1005.68
2018-01-25T05:59:09.500Z,1005.72
2018-01-25T06:00:09.495Z,1005.7
2018-01-25T06:01:09.426Z,1005.7
2018-01-25T06:02:09.429Z,1005.7
2018-01-25T06:03:09.537Z,1005.68
2018-01-25T06:04:09.441Z,1005.68
2018-01-25T06:05:09.541Z,1005.71
2018-01-25T06:06:09.496Z,1005.69
2018-01-25T06:07:09.458Z,1005.73
2018-01-25T06:08:09.645Z,1005.72
2018-01-25T06:09:09.504Z,1005.82
2018-01-25T06:10:09.528Z,1005.77
2018-01-25T06:11:09.532Z,1005.8
2018-01-25T06:12:09.553Z,1005.81
2018-01-25T06:13:09.506Z,1005.76
2018-01-25T06:14:09.585Z,1005.82
2018-01-25T06:15:09.608Z,1005.8
2018-01-25T06:16:09.557Z,1005.85
2018-01-25T06:17:09.579Z,1005.76
2018-01-25T06:18:09.834Z,1005.77
2018-01-25T06:19:09.608Z,1005.8
2018-01-25T06:20:09.553Z,1005.74
2018-01-25T06:21:09.635Z,1005.77
2018-01-25T06:22:09.605Z,1005.75
2018-01-25T06:23:10.154Z,1005.78
2018-01-25T06:24:09.448Z,1005.75
2018-01-25T06:25:09.590Z,1005.76
2018-01-25T06:26:09.517Z,1005.76
2018-01-25T06:27:09.498Z,1005.75
2018-01-25T06:28:09.451Z,1005.74
2018-01-25T06:29:09.416Z,1005.73
2018-01-25T06:30:09.498Z,1005.69
2018-01-25T06:31:09.470Z,1005.69
2018-01-25T06:32:09.465Z,1005.72
2018-01-25T06:33:09.856Z,1005.72
2018-01-25T06:34:09.580Z,1005.71
2018-01-25T06:35:09.504Z,1005.69
2018-01-25T06:36:09.588Z,1005.71
2018-01-25T06:37:09.453Z,1005.69
2018-01-25T06:38:09.660Z,1005.74
2018-01-25T06:39:09.525Z,1005.73
2018-01-25T06:40:09.514Z,1005.66
2018-01-25T06:41:09.505Z,1005.67
2018-01-25T06:42:09.503Z,1005.72
2018-01-25T06:43:09.576Z,1005.69
2018-01-25T06:44:09.547Z,1005.75
2018-01-25T06:45:09.513Z,1005.75
2018-01-25T06:46:09.511Z,1005.67
2018-01-25T06:47:09.470Z,1005.77
2018-01-25T06:48:09.482Z,1005.74
2018-01-25T06:49:09.573Z,1005.72
2018-01-25T06:50:09.505Z,1005.73
2018-01-25T06:51:09.486Z,1005.75
2018-01-25T06:52:09.537Z,1005.76
2018-01-25T06:53:09.513Z,1005.73
2018-01-25T06:54:09.539Z,1005.73
2018-01-25T06:55:09.478Z,1005.69
2018-01-25T06:56:09.496Z,1005.7
2018-01-25T06:57:09.515Z,1005.62
2018-01-25T06:58:09.527Z,1005.61
2018-01-25T06:59:09.540Z,1005.59
2018-01-25T07:00:09.498Z,1005.58
2018-01-25T07:01:09.700Z,1005.57
2018-01-25T07:02:09.528Z,1005.57
2018-01-25T07:03:09.648Z,1005.53
2018-01-25T07:04:09.563Z,1005.57
2018-01-25T07:05:09.593Z,1005.58
2018-01-25T07:06:09.667Z,1005.6
2018-01-25T07:07:09.594Z,1005.59
2018-01-25T07:08:09.579Z,1005.58
2018-01-25T07:09:09.562Z,1005.58
2018-01-25T07:10:09.556Z,1005.58
2018-01-25T07:11:09.737Z,1005.61
2018-01-25T07:12:09.635Z,1005.6
2018-01-25T07:13:09.564Z,1005.54
2018-01-25T07:14:09.584Z,1005.56
2018-01-25T07:15:09.574Z,1005.6
2018-01-25T07:16:09.636Z,1005.58
2018-01-25T07:17:09.593Z,1005.51
2018-01-25T07:18:09.638Z,1005.51
2018-01-25T07:19:09.592Z,1005.51
2018-01-25T07:20:09.612Z,1005.55
2018-01-25T07:21:09.530Z,1005.52
2018-01-25T07:22:09.706Z,1005.52
2018-01-25T07:23:09.591Z,1005.53
2018-01-25T07:24:09.515Z,1005.49
2018-01-25T07:25:09.643Z,1005.5
2018-01-25T07:26:09.725Z,1005.42
2018-01-25T07:27:09.576Z,1005.53
2018-01-25T07:28:09.620Z,1005.49
2018-01-25T07:29:09.652Z,1005.52
2018-01-25T07:30:09.670Z,1005.55
2018-01-25T07:31:09.558Z,1005.55
2018-01-25T07:32:09.604Z,1005.55
2018-01-25T07:33:09.714Z,1005.51
2018-01-25T07:34:09.650Z,1005.53
2018-01-25T07:35:10.128Z,1005.49
2018-01-25T07:36:09.653Z,1005.52
2018-01-25T07:37:09.653Z,1005.5
2018-01-25T07:38:09.670Z,1005.57
2018-01-25T07:39:09.662Z,1005.57
2018-01-25T07:40:09.839Z,1005.57
2018-01-25T07:41:09.675Z,1005.61
2018-01-25T07:42:09.637Z,1005.6
2018-01-25T07:43:09.731Z,1005.62
2018-01-25T07:44:09.687Z,1005.62
2018-01-25T07:45:09.862Z,1005.64
2018-01-25T07:46:09.652Z,1005.67
2018-01-25T07:47:09.645Z,1005.69
2018-01-25T07:48:09.639Z,1005.67
2018-01-25T07:49:09.631Z,1005.69
2018-01-25T07:50:09.680Z,1005.69
2018-01-25T07:51:09.791Z,1005.66
2018-01-25T07:52:09.652Z,1005.67
2018-01-25T07:53:09.633Z,1005.63
2018-01-25T07:54:09.671Z,1005.61
2018-01-25T07:55:09.749Z,1005.7
2018-01-25T07:56:09.732Z,1005.64
2018-01-25T07:57:09.688Z,1005.63
2018-01-25T07:58:09.642Z,1005.67
2018-01-25T07:59:09.684Z,1005.69
2018-01-25T08:00:09.630Z,1005.65
2018-01-25T08:01:09.782Z,1005.62
2018-01-25T08:02:09.618Z,1005.67
2018-01-25T08:03:09.997Z,1005.64
2018-01-25T08:04:09.904Z,1005.67
2018-01-25T08:05:09.887Z,1005.67
2018-01-25T08:06:10.758Z,1005.66
2018-01-25T08:07:09.931Z,1005.69
2018-01-25T08:08:09.941Z,1005.66
2018-01-25T08:09:09.961Z,1005.66
2018-01-25T08:10:09.905Z,1005.63
2018-01-25T08:11:09.925Z,1005.59
2018-01-25T08:12:09.939Z,1005.57
2018-01-25T08:13:10.102Z,1005.57
2018-01-25T08:14:09.899Z,1005.55
2018-01-25T08:15:09.885Z,1005.57
2018-01-25T08:16:09.881Z,1005.63
2018-01-25T08:17:09.919Z,1005.6
2018-01-25T08:18:09.965Z,1005.55
2018-01-25T08:19:09.926Z,1005.63
2018-01-25T08:20:09.900Z,1005.64
2018-01-25T08:21:10.038Z,1005.61
2018-01-25T08:22:10.003Z,1005.6
2018-01-25T08:23:10.057Z,1005.65
2018-01-25T08:24:10.031Z,1005.68
2018-01-25T08:25:10.000Z,1005.64
2018-01-25T08:26:10.003Z,1005.67
2018-01-25T08:27:09.952Z,1005.69
2018-01-25T08:28:10.052Z,1005.71
2018-01-25T08:29:09.964Z,1005.66
2018-01-25T08:30:10.015Z,1005.64
2018-01-25T08:31:09.914Z,1005.66
2018-01-25T08:32:09.915Z,1005.66
2018-01-25T08:33:09.986Z,1005.73
2018-01-25T08:34:09.902Z,1005.73
2018-01-25T08:35:09.887Z,1005.75
2018-01-25T08:36:10.132Z,1005.7
2018-01-25T08:37:09.958Z,1005.7
2018-01-25T08:38:09.956Z,1005.75
2018-01-25T08:39:10.627Z,1005.69
2018-01-25T08:40:09.988Z,1005.73
2018-01-25T08:41:10.001Z,1005.71
2018-01-25T08:42:09.982Z,1005.71
2018-01-25T08:43:10.147Z,1005.72
2018-01-25T08:44:10.070Z,1005.73
2018-01-25T08:45:09.968Z,1005.69
2018-01-25T08:46:10.068Z,1005.73
2018-01-25T08:47:10.020Z,1005.69
2018-01-25T08:48:10.066Z,1005.72
2018-01-25T08:49:09.969Z,1005.69
2018-01-25T08:50:09.993Z,1005.7
2018-01-25T08:51:09.941Z,1005.7
2018-01-25T08:52:10.007Z,1005.71
2018-01-25T08:53:10.003Z,1005.68
2018-01-25T08:54:10.006Z,1005.68
2018-01-25T08:55:09.921Z,1005.66
2018-01-25T08:56:09.952Z,1005.6
2018-01-25T08:57:09.878Z,1005.65
2018-01-25T08:58:10.535Z,1005.66
2018-01-25T08:59:10.056Z,1005.74
2018-01-25T09:00:09.981Z,1005.67
2018-01-25T09:01:10.012Z,1005.67
2018-01-25T09:02:09.889Z,1005.69
2018-01-25T09:03:10.038Z,1005.68
2018-01-25T09:04:10.086Z,1005.8
2018-01-25T09:05:10.069Z,1005.7
2018-01-25T09:06:10.020Z,1005.72
2018-01-25T09:07:09.952Z,1005.7
2018-01-25T09:08:10.070Z,1005.73
2018-01-25T09:09:10.137Z,1005.7
2018-01-25T09:10:10.118Z,1005.72
2018-01-25T09:11:09.973Z,1005.72
2018-01-25T09:12:09.953Z,1005.76
2018-01-25T09:13:10.060Z,1005.77
2018-01-25T09:14:10.030Z,1005.73
2018-01-25T09:15:10.061Z,1005.73
2018-01-25T09:16:09.988Z,1005.79
2018-01-25T09:17:10.070Z,1005.78
2018-01-25T09:18:09.996Z,1005.83
2018-01-25T09:19:10.072Z,1005.83
2018-01-25T09:20:10.040Z,1005.82
2018-01-25T09:21:10.132Z,1005.82
2018-01-25T09:22:10.324Z,1005.82
2018-01-25T09:23:10.026Z,1005.81
2018-01-25T09:24:10.042Z,1005.81
2018-01-25T09:25:10.137Z,1005.86
2018-01-25T09:26:10.070Z,1005.89
2018-01-25T09:27:10.165Z,1005.89
2018-01-25T09:28:10.127Z,1005.91
2018-01-25T09:29:10.086Z,1005.91
2018-01-25T09:30:10.045Z,1005.87
2018-01-25T09:31:10.021Z,1005.93
2018-01-25T09:32:10.121Z,1005.92
2018-01-25T09:33:10.143Z,1005.87
2018-01-25T09:34:09.109Z,1005.9
2018-01-25T09:35:09.059Z,1005.87
2018-01-25T09:36:09.110Z,1005.87
2018-01-25T09:37:09.039Z,1005.85
2018-01-25T09:38:09.216Z,1005.82
2018-01-25T09:39:09.159Z,1005.88
2018-01-25T09:40:09.164Z,1005.88
2018-01-25T09:41:09.173Z,1005.86
2018-01-25T09:42:09.099Z,1005.86
2018-01-25T09:43:09.030Z,1005.92
2018-01-25T09:44:09.126Z,1005.93
2018-01-25T09:45:09.135Z,1005.84
2018-01-25T09:46:09.115Z,1005.91
2018-01-25T09:47:09.251Z,1005.91
2018-01-25T09:48:09.136Z,1005.95
2018-01-25T09:49:09.132Z,1005.94
2018-01-25T09:50:09.103Z,1005.96
2018-01-25T09:51:09.161Z,1005.97
2018-01-25T09:52:09.182Z,1006
2018-01-25T09:53:09.175Z,1005.96
2018-01-25T09:54:09.131Z,1005.97
2018-01-25T09:55:09.136Z,1005.99
2018-01-25T09:56:09.226Z,1005.99
2018-01-25T09:57:09.129Z,1006.04
2018-01-25T09:58:09.070Z,1006.01
2018-01-25T09:59:09.103Z,1006.01
2018-01-25T10:00:09.139Z,1006
2018-01-25T10:01:09.115Z,1006.04
2018-01-25T10:02:08.985Z,1005.98
2018-01-25T10:03:09.189Z,1006.04
2018-01-25T10:04:09.179Z,1005.99
2018-01-25T10:05:09.229Z,1006
2018-01-25T10:06:09.072Z,1005.97
2018-01-25T10:07:09.185Z,1006.04
2018-01-25T10:08:09.188Z,1006
2018-01-25T10:09:09.157Z,1005.99
2018-01-25T10:10:09.163Z,1005.99
2018-01-25T10:11:09.172Z,1005.98
2018-01-25T10:12:09.283Z,1005.98
2018-01-25T10:13:09.191Z,1005.95
2018-01-25T10:14:09.138Z,1005.95
2018-01-25T10:15:09.099Z,1005.99
2018-01-25T10:16:09.129Z,1005.95
2018-01-25T10:17:09.211Z,1005.92
2018-01-25T10:18:09.176Z,1005.92
2018-01-25T10:19:09.224Z,1005.91
2018-01-25T10:20:09.200Z,1005.95
2018-01-25T10:21:09.236Z,1005.88
2018-01-25T10:22:09.200Z,1005.88
2018-01-25T10:23:09.222Z,1005.91
2018-01-25T10:24:09.216Z,1005.87
2018-01-25T10:25:09.264Z,1005.94
2018-01-25T10:26:09.225Z,1005.92
2018-01-25T10:27:09.190Z,1005.83
2018-01-25T10:28:09.216Z,1005.88
2018-01-25T10:29:09.260Z,1005.83
2018-01-25T10:30:09.134Z,1005.86
2018-01-25T10:31:09.239Z,1005.87
2018-01-25T10:32:09.163Z,1005.81
2018-01-25T10:33:09.129Z,1005.81
2018-01-25T10:34:09.236Z,1005.78
2018-01-25T10:35:09.304Z,1005.8
2018-01-25T10:36:09.228Z,1005.76
2018-01-25T10:37:09.247Z,1005.74
2018-01-25T10:38:09.240Z,1005.73
2018-01-25T10:39:09.190Z,1005.74
2018-01-25T10:40:09.225Z,1005.7
2018-01-25T10:41:09.304Z,1005.68
2018-01-25T10:42:09.298Z,1005.69
2018-01-25T10:43:09.390Z,1005.64
2018-01-25T10:44:09.295Z,1005.68
2018-01-25T10:45:09.800Z,1005.64
2018-01-25T10:46:09.396Z,1005.58
2018-01-25T10:47:09.373Z,1005.58
2018-01-25T10:48:09.320Z,1005.59
2018-01-25T10:49:09.224Z,1005.61
2018-01-25T10:50:09.338Z,1005.54
2018-01-25T10:51:09.342Z,1005.55
2018-01-25T10:52:09.188Z,1005.55
2018-01-25T10:53:09.206Z,1005.53
2018-01-25T10:54:09.249Z,1005.48
2018-01-25T10:55:10.025Z,1005.47
2018-01-25T10:56:09.968Z,1005.47
2018-01-25T10:57:09.251Z,1005.45
2018-01-25T10:58:09.853Z,1005.41
2018-01-25T10:59:09.995Z,1005.43
2018-01-25T11:00:12.144Z,1005.42
2018-01-25T11:01:10.025Z,1005.43
2018-01-25T11:02:09.289Z,1005.41
2018-01-25T11:03:09.259Z,1005.44
2018-01-25T11:04:10.305Z,1005.42
2018-01-25T11:05:10.130Z,1005.41
2018-01-25T11:06:10.716Z,1005.47
2018-01-25T11:07:10.121Z,1005.44
2018-01-25T11:08:10.799Z,1005.45
2018-01-25T11:09:09.534Z,1005.36
2018-01-25T11:10:09.646Z,1005.36
2018-01-25T11:11:09.772Z,1005.35
2018-01-25T11:12:09.524Z,1005.36
2018-01-25T11:13:09.522Z,1005.3
2018-01-25T11:14:09.623Z,1005.25
2018-01-25T11:15:09.870Z,1005.24
2018-01-25T11:16:10.327Z,1005.24
2018-01-25T11:17:10.167Z,1005.25
2018-01-25T11:18:10.363Z,1005.16
2018-01-25T11:19:09.562Z,1005.13
2018-01-25T11:20:10.896Z,1005.17
2018-01-25T11:21:10.990Z,1005.12
2018-01-25T11:22:09.597Z,1005.13
2018-01-25T11:23:10.651Z,1005.09
2018-01-25T11:24:09.485Z,1005.06
2018-01-25T11:25:09.567Z,1005.09
2018-01-25T11:26:10.449Z,1005.05
2018-01-25T11:27:11.325Z,1005.1
2018-01-25T11:28:09.498Z,1005.03
2018-01-25T11:29:10.140Z,1005.06
2018-01-25T11:30:09.566Z,1005.07
2018-01-25T11:31:10.215Z,1005.09
2018-01-25T11:32:11.028Z,1005.12
2018-01-25T11:33:09.597Z,1005.09
2018-01-25T11:34:09.739Z,1005.07
2018-01-25T11:35:09.546Z,1005.02
2018-01-25T11:36:09.636Z,1004.98
2018-01-25T11:37:09.539Z,1004.92
2018-01-25T11:38:09.595Z,1004.91
2018-01-25T11:39:10.213Z,1004.91
2018-01-25T11:40:09.568Z,1004.91
2018-01-25T11:41:09.697Z,1004.89
2018-01-25T11:42:09.625Z,1004.87
2018-01-25T11:43:09.580Z,1004.9
2018-01-25T11:44:09.577Z,1004.89
2018-01-25T11:45:09.593Z,1004.83
2018-01-25T11:46:09.621Z,1004.83
2018-01-25T11:47:09.513Z,1004.82
2018-01-25T11:48:09.657Z,1004.79
2018-01-25T11:49:09.605Z,1004.83
2018-01-25T11:50:09.527Z,1004.79
2018-01-25T11:51:09.595Z,1004.78
2018-01-25T11:52:09.602Z,1004.78
2018-01-25T11:53:09.621Z,1004.78
2018-01-25T11:54:09.559Z,1004.74
2018-01-25T11:55:09.593Z,1004.74
2018-01-25T11:56:09.633Z,1004.74
2018-01-25T11:57:09.545Z,1004.77
2018-01-25T11:58:09.644Z,1004.75
2018-01-25T11:59:09.548Z,1004.72
2018-01-25T12:00:09.515Z,1004.66
2018-01-25T12:01:09.522Z,1004.67
2018-01-25T12:02:09.579Z,1004.67
2018-01-25T12:03:09.692Z,1004.61
2018-01-25T12:04:09.853Z,1004.63
2018-01-25T12:05:09.794Z,1004.57
2018-01-25T12:06:09.854Z,1004.59
2018-01-25T12:07:09.832Z,1004.58
2018-01-25T12:08:09.884Z,1004.58
2018-01-25T12:09:09.890Z,1004.61
2018-01-25T12:10:09.804Z,1004.54
2018-01-25T12:11:09.858Z,1004.53
2018-01-25T12:12:09.808Z,1004.49
2018-01-25T12:13:09.815Z,1004.49
2018-01-25T12:14:09.944Z,1004.54
2018-01-25T12:15:09.826Z,1004.51
2018-01-25T12:16:09.933Z,1004.53
2018-01-25T12:17:09.866Z,1004.51